LEAMGCHI

Guest
Details From LEAM - Almeria
To GCHI - Hierro
Flight Number -
Tags decoded
Created
Modified
Stats Distance 954 nm / 1,767 km
Max Altitude 0 ft / 0 m
Waypoints 2
Social Downloads 0
Likes 0
Share VATSIM

Download

Looking for another format? Having issues loading an existing format? Contact us
Advertisement - Login to hide

Notes

Requested: LEAM GCHI

Route

LEAM GCHI

ID Type Via Altitude Latitude Longitude Leg Dist Tot Dist Heading (true) Name
O LEAM APT - 0 ft / 0 m 36.84393˚ -2.37010˚ - 0 nm - Almeria
O GCHI APT - 0 ft / 0 m 27.81485˚ -17.88705˚ 954 nm 954 nm 240° / 231° Hierro

Altitude Profile

Advertisement - Login to hide

Weather


0- 5 10 15 20 25 30 35+ Temperature / ° C

Clouds and Precipitation
Forecast for 2017-12-18 00:00 UTC. Updated an hour ago

Ground ~20,000 ft ~40,000 ft Winds

LEAM

Details ICAO LEAM (LEI)
Name Almeria
Region Spain
Timezone Unknown (UTC+0.0)
Stats Elevation 70 ft / 21 m (AMSL)
Location 36.843935° -2.370097°
Runways 1
Magnetic Variation 0.287° W

METAR

LEAM 172000Z 01007KT CAVOK 11/04 Q1031

Decode

TAF

TAF LEAM 171400Z 1715/1815 22006KT CAVOK TX16/1814Z TN06/1807Z BECMG 1715/1717 08010KT BECMG 1719/1721 35010KT BECMG 1811/1813 21008KT

Decode

Departure Runways

ID Width Length Bearing (true) Bearing (mag) Surface Threshold Offset Overrun Length
08 148 ft / 45 m 10,484 ft / 3,196 m 72.94° 73.23° Asphalt 492 ft / 150 m 191 ft / 58 m
26 148 ft / 45 m 10,484 ft / 3,196 m 252.96° 253.25° Asphalt 0 ft / 0 m 150 ft / 46 m

GCHI

Details ICAO GCHI (VDE)
Name Hierro
Region Canary Islands
Timezone Atlantic/Canary (UTC+0.0)
Stats Elevation 337 ft / 103 m (AMSL)
Location 27.814848° -17.887052°
Runways 1
Magnetic Variation 5.628° W

METAR

GCHI 172000Z AUTO 04018KT 9999 FEW032/// SCT056/// 20/13 Q1024

Decode

TAF

TAF GCHI 171400Z 1715/1815 04015KT 9999 FEW030 TX23/1814Z TN20/1806Z PROB30 TEMPO 1715/1718 RA

Decode

Destination Runways

ID Width Length Bearing (true) Bearing (mag) Surface Threshold Offset Overrun Length
16 98 ft / 30 m 4,110 ft / 1,253 m 152.71° 158.34° Asphalt 0 ft / 0 m 112 ft / 34 m
34 98 ft / 30 m 4,110 ft / 1,253 m 332.71° 338.34° Asphalt 0 ft / 0 m 105 ft / 32 m